Time;durP1;ratioP1;P1;durP2;ratioP2;P2;SDS_P1;SDS_P2;PMS_P1;PMS_P2;Temp;Humidity;BMP_temperature;BMP_pressure;BME280_temperature;BME280_humidity;BME280_pressure;Samples;Min_cycle;Max_cycle;Signal;HPM_P1;HPM_P2
2022/03/26 00:00:03;;;;;;;40.65;25.25;;;;;;;1.07;88.77;93891.47;2085175;28;20434;-80
2022/03/26 00:01:04;;;;;;;38.22;24.15;;;;;;;1.12;88.30;93891.22;2078896;28;20037;-81
2022/03/26 00:02:05;;;;;;;40.08;25.00;;;;;;;1.12;88.28;93894.63;2079334;28;20030;-81
2022/03/26 00:03:06;;;;;;;45.22;25.30;;;;;;;1.11;88.65;93892.34;2087941;28;21019;-83
2022/03/26 00:04:07;;;;;;;38.42;23.20;;;;;;;1.12;88.79;93896.50;2095798;28;20066;-82
2022/03/26 00:05:08;;;;;;;41.50;24.95;;;;;;;1.02;88.83;93886.44;2090953;28;20028;-83
2022/03/26 00:06:10;;;;;;;42.28;25.05;;;;;;;0.91;88.32;93888.78;2085252;28;20021;-82
2022/03/26 00:07:11;;;;;;;38.85;23.65;;;;;;;0.81;90.22;93886.63;2084607;28;20470;-83
2022/03/26 00:08:12;;;;;;;41.05;25.60;;;;;;;0.96;90.05;93893.81;2089651;28;20028;-83
2022/03/26 00:09:13;;;;;;;38.38;23.95;;;;;;;0.89;90.17;93886.50;2092695;28;20108;-83
2022/03/26 00:10:15;;;;;;;41.28;23.77;;;;;;;0.82;89.53;93881.03;2094887;28;20477;-83
2022/03/26 00:11:16;;;;;;;41.70;24.30;;;;;;;0.73;90.09;93885.66;2084881;28;20122;-83
2022/03/26 00:12:17;;;;;;;37.50;23.33;;;;;;;0.73;90.00;93883.78;2088486;28;20044;-83
2022/03/26 00:13:20;;;;;;;40.78;24.95;;;;;;;0.79;90.08;93888.81;2090010;28;20204;-82
2022/03/26 00:14:21;;;;;;;42.00;24.33;;;;;;;0.84;90.03;93889.38;2092518;28;20498;-83
2022/03/26 00:15:22;;;;;;;45.33;25.05;;;;;;;0.81;89.95;93889.25;2087867;28;20025;-81
2022/03/26 00:16:22;;;;;;;43.92;25.00;;;;;;;0.82;89.76;93894.19;2086193;28;20052;-81
2022/03/26 00:17:24;;;;;;;43.88;26.58;;;;;;;0.68;89.92;93886.66;2085166;28;20536;-83
2022/03/26 00:18:27;;;;;;;42.03;25.48;;;;;;;0.61;89.94;93896.97;2088103;28;20045;-82
2022/03/26 00:19:28;;;;;;;37.60;24.67;;;;;;;0.77;90.30;93897.06;2088272;28;20029;-82
2022/03/26 00:20:29;;;;;;;42.00;24.88;;;;;;;0.87;89.22;93904.47;2095758;28;20071;-80
2022/03/26 00:21:30;;;;;;;44.67;25.95;;;;;;;0.69;88.70;93890.81;2096419;28;20115;-81
2022/03/26 00:22:31;;;;;;;41.55;23.95;;;;;;;0.64;90.43;93898.19;2103944;28;20028;-82
2022/03/26 00:23:32;;;;;;;39.38;24.27;;;;;;;0.74;91.60;93887.19;2095727;28;20110;-83
2022/03/26 00:24:34;;;;;;;47.05;24.55;;;;;;;0.69;90.99;93884.81;2087802;28;20641;-82
2022/03/26 00:25:35;;;;;;;39.95;24.10;;;;;;;0.64;91.42;93887.66;2088902;28;20071;-83
2022/03/26 00:26:36;;;;;;;40.38;24.00;;;;;;;0.65;91.34;93889.19;2096123;28;20921;-81
2022/03/26 00:27:37;;;;;;;44.17;25.25;;;;;;;0.64;91.07;93898.19;2088089;28;20025;-81
2022/03/26 00:28:38;;;;;;;43.78;25.95;;;;;;;0.61;90.62;93890.97;2085974;28;20025;-83
2022/03/26 00:29:40;;;;;;;44.50;25.23;;;;;;;0.61;91.81;93883.81;2083701;28;20028;-80
2022/03/26 00:30:41;;;;;;;44.35;25.63;;;;;;;0.59;92.14;93893.16;2079336;28;20053;-81
2022/03/26 00:31:42;;;;;;;47.67;25.38;;;;;;;0.60;92.70;93886.81;2086988;28;20033;-80
2022/03/26 00:32:43;;;;;;;39.72;24.50;;;;;;;0.55;92.67;93879.16;2087317;28;21523;-80
2022/03/26 00:33:44;;;;;;;41.08;25.23;;;;;;;0.51;93.00;93892.19;2085052;28;20384;-80
2022/03/26 00:34:46;;;;;;;38.15;24.88;;;;;;;0.67;91.93;93887.00;2091444;28;20048;-82
2022/03/26 00:35:47;;;;;;;42.55;25.02;;;;;;;0.63;92.04;93888.78;2094752;28;20424;-80
2022/03/26 00:36:48;;;;;;;42.28;24.40;;;;;;;0.53;91.79;93891.84;2088244;28;20028;-81
2022/03/26 00:37:52;;;;;;;41.72;24.83;;;;;;;0.53;92.24;93886.59;2088033;28;20028;-80
2022/03/26 00:38:55;;;;;;;42.55;24.98;;;;;;;0.71;91.24;93887.88;2088742;28;20056;-81
2022/03/26 00:39:56;;;;;;;41.65;25.10;;;;;;;0.81;90.54;93884.00;2103564;28;20015;-80
2022/03/26 00:40:57;;;;;;;39.08;23.05;;;;;;;0.66;91.16;93891.50;2088315;28;20029;-81
2022/03/26 00:41:58;;;;;;;41.60;24.67;;;;;;;0.56;90.82;93884.06;2086516;28;20064;-81
2022/03/26 00:42:59;;;;;;;39.58;23.58;;;;;;;0.50;91.60;93888.81;2078227;28;20024;-81
2022/03/26 00:44:01;;;;;;;39.10;23.55;;;;;;;0.53;91.99;93890.00;2089518;28;20813;-81
2022/03/26 00:45:03;;;;;;;46.38;25.58;;;;;;;0.58;91.88;93887.16;2087517;28;20116;-81
2022/03/26 00:46:04;;;;;;;41.13;24.88;;;;;;;0.55;92.29;93889.66;2081363;28;20108;-81
2022/03/26 00:47:06;;;;;;;41.50;25.67;;;;;;;0.44;92.70;93898.03;2078141;28;20592;-80
2022/03/26 00:48:07;;;;;;;42.13;24.58;;;;;;;0.37;93.21;93889.94;2088456;28;20043;-82
2022/03/26 00:49:08;;;;;;;40.53;24.45;;;;;;;0.45;92.50;93886.41;2095080;28;20032;-81
2022/03/26 00:50:10;;;;;;;38.30;22.90;;;;;;;0.36;92.48;93891.03;2087558;28;20021;-82
2022/03/26 00:51:11;;;;;;;39.42;24.65;;;;;;;0.42;92.66;93891.56;2087477;28;20020;-81
2022/03/26 00:52:12;;;;;;;41.67;25.17;;;;;;;0.41;92.44;93890.78;2088756;28;20039;-83
2022/03/26 00:53:13;;;;;;;36.83;23.40;;;;;;;0.46;92.75;93887.94;2088066;28;20033;-81
2022/03/26 00:54:15;;;;;;;44.58;24.00;;;;;;;0.42;92.39;93891.56;2087423;28;20037;-82
2022/03/26 00:55:16;;;;;;;41.78;25.02;;;;;;;0.47;92.85;93893.97;2096469;28;20020;-81
2022/03/26 00:56:17;;;;;;;43.00;25.40;;;;;;;0.42;92.45;93888.94;2077512;28;20031;-81
2022/03/26 00:57:18;;;;;;;39.40;24.27;;;;;;;0.41;92.47;93892.66;2079304;28;20426;-81
2022/03/26 00:58:19;;;;;;;49.15;25.05;;;;;;;0.38;92.21;93890.69;2077655;28;20132;-82
2022/03/26 00:59:20;;;;;;;38.35;23.60;;;;;;;0.39;92.09;93886.94;2086981;28;20930;-81
2022/03/26 01:00:21;;;;;;;41.13;25.05;;;;;;;0.34;92.52;93893.22;2094959;28;20036;-82
2022/03/26 01:01:22;;;;;;;42.88;24.73;;;;;;;0.48;92.87;93893.63;2090899;28;20021;-82
2022/03/26 01:02:24;;;;;;;38.60;23.65;;;;;;;0.49;92.56;93897.03;2092348;28;20037;-83
2022/03/26 01:03:24;;;;;;;39.22;23.88;;;;;;;0.48;91.88;93891.00;2100218;28;20036;-82
2022/03/26 01:04:25;;;;;;;41.63;25.63;;;;;;;0.36;92.51;93895.53;2091565;28;20047;-81
2022/03/26 01:05:26;;;;;;;43.67;24.42;;;;;;;0.37;92.95;93897.06;2074574;28;20659;-82
2022/03/26 01:06:28;;;;;;;47.90;26.25;;;;;;;0.33;93.83;93902.19;2080804;28;20378;-81
2022/03/26 01:07:29;;;;;;;40.83;24.70;;;;;;;0.30;93.97;93894.97;2083185;28;20036;-81
2022/03/26 01:08:31;;;;;;;40.05;25.35;;;;;;;0.39;93.95;93892.97;2078868;28;20034;-82
2022/03/26 01:09:32;;;;;;;45.70;25.92;;;;;;;0.34;93.93;93895.84;2079763;28;20021;-82
2022/03/26 01:10:33;;;;;;;44.38;26.33;;;;;;;0.20;93.35;93890.16;2083642;28;20834;-81
2022/03/26 01:11:34;;;;;;;43.97;24.90;;;;;;;0.23;94.22;93897.41;2095185;28;20047;-82
2022/03/26 01:12:35;;;;;;;42.58;24.98;;;;;;;0.25;93.83;93897.81;2089694;28;20052;-81
2022/03/26 01:13:38;;;;;;;39.75;25.33;;;;;;;0.29;94.35;93890.81;2083523;28;20709;-83
2022/03/26 01:14:39;;;;;;;46.42;26.17;;;;;;;0.37;94.36;93897.81;2093581;28;20016;-82
2022/03/26 01:15:41;;;;;;;46.47;27.10;;;;;;;0.44;94.26;93895.41;2084645;28;20671;-82
2022/03/26 01:16:42;;;;;;;43.75;26.60;;;;;;;0.41;93.60;93890.78;2092491;28;20032;-82
2022/03/26 01:17:43;;;;;;;41.72;25.38;;;;;;;0.38;93.87;93890.69;2092205;28;20432;-84
2022/03/26 01:18:44;;;;;;;42.42;26.55;;;;;;;0.49;93.50;93889.91;2102171;28;20237;-82
2022/03/26 01:19:46;;;;;;;44.42;25.70;;;;;;;0.51;92.78;93886.94;2082151;28;20021;-82
2022/03/26 01:20:46;;;;;;;46.65;26.77;;;;;;;0.46;93.77;93885.31;2084221;28;20048;-82
2022/03/26 01:21:47;;;;;;;43.97;25.70;;;;;;;0.47;93.71;93888.69;2080976;28;20071;-81
2022/03/26 01:22:48;;;;;;;46.47;26.35;;;;;;;0.44;95.08;93889.34;2072759;28;20028;-83
2022/03/26 01:23:50;;;;;;;44.10;26.02;;;;;;;0.58;94.32;93891.66;2074312;28;20033;-82
2022/03/26 01:24:51;;;;;;;46.85;26.23;;;;;;;0.57;93.95;93890.88;2078174;28;20116;-83
2022/03/26 01:25:52;;;;;;;45.17;27.23;;;;;;;0.54;94.14;93886.28;2080880;28;20025;-83
2022/03/26 01:26:53;;;;;;;42.30;26.63;;;;;;;0.55;94.46;93879.91;2073703;28;20029;-81
2022/03/26 01:27:54;;;;;;;45.22;26.48;;;;;;;0.55;93.95;93887.03;2082401;28;20063;-81
2022/03/26 01:28:55;;;;;;;43.05;26.17;;;;;;;0.60;94.09;93881.53;2090457;28;20045;-81
2022/03/26 01:29:56;;;;;;;45.47;26.75;;;;;;;0.54;93.68;93888.16;2091261;28;20130;-82
2022/03/26 01:30:59;;;;;;;39.90;25.00;;;;;;;0.62;92.88;93890.66;2089173;28;20021;-82
2022/03/26 01:32:00;;;;;;;44.15;26.25;;;;;;;0.59;94.09;93885.28;2079614;28;20028;-81
2022/03/26 01:33:01;;;;;;;45.10;26.00;;;;;;;0.49;94.91;93887.28;2072807;28;20025;-82
2022/03/26 01:34:02;;;;;;;45.03;27.42;;;;;;;0.50;94.45;93883.53;2088623;28;20024;-81
2022/03/26 01:35:04;;;;;;;42.65;25.55;;;;;;;0.58;93.91;93883.75;2088466;28;20033;-81
2022/03/26 01:36:08;;;;;;;44.70;26.75;;;;;;;0.58;94.18;93883.75;2075684;28;20026;-82
2022/03/26 01:37:09;;;;;;;43.20;26.15;;;;;;;0.57;94.43;93883.00;2083522;28;20022;-81
2022/03/26 01:38:11;;;;;;;46.05;26.20;;;;;;;0.74;93.38;93880.06;2082587;28;20041;-83
2022/03/26 01:39:12;;;;;;;44.67;26.17;;;;;;;0.65;93.56;93871.53;2074257;28;20022;-83
2022/03/26 01:40:22;;;;;;;45.80;27.92;;;;;;;0.66;94.37;93881.00;2074108;28;20026;-83
2022/03/26 01:41:23;;;;;;;41.13;25.35;;;;;;;0.64;93.83;93877.16;2092181;28;20032;-83
2022/03/26 01:42:24;;;;;;;44.47;26.27;;;;;;;0.69;92.97;93866.38;2090974;28;20547;-83
2022/03/26 01:43:25;;;;;;;43.38;26.77;;;;;;;0.59;93.56;93872.88;2080570;28;20017;-82
2022/03/26 01:44:26;;;;;;;45.53;25.40;;;;;;;0.66;93.31;93869.66;2082115;28;20025;-82
2022/03/26 01:45:28;;;;;;;49.55;27.27;;;;;;;0.64;93.56;93875.28;2070987;28;20022;-82
2022/03/26 01:47:00;;;;;;;48.17;27.15;;;;;;;0.53;93.66;93870.81;2075468;28;20025;-82
2022/03/26 01:48:01;;;;;;;45.42;24.92;;;;;;;0.52;93.91;93869.28;2079192;28;20040;-82
2022/03/26 01:49:01;;;;;;;40.85;25.23;;;;;;;0.60;93.67;93866.53;2095670;28;20040;-82
2022/03/26 01:50:04;;;;;;;44.45;26.40;;;;;;;0.52;94.14;93879.81;2078361;28;20055;-83
2022/03/26 01:51:17;;;;;;;41.17;25.35;;;;;;;0.49;94.47;93873.38;2092072;28;20135;-82
2022/03/26 01:52:18;;;;;;;42.55;25.50;;;;;;;0.54;93.84;93872.38;2096634;28;20466;-82
2022/03/26 01:53:19;;;;;;;49.65;27.65;;;;;;;0.49;93.74;93865.47;2096979;28;20012;-82
2022/03/26 01:54:20;;;;;;;45.28;26.50;;;;;;;0.40;94.72;93876.13;2087771;28;20025;-82
2022/03/26 01:55:23;;;;;;;48.22;27.08;;;;;;;0.56;93.82;93872.78;2088186;28;20024;-82
2022/03/26 01:56:24;;;;;;;49.20;26.73;;;;;;;0.50;94.23;93864.38;2089867;28;20028;-81
2022/03/26 01:57:26;;;;;;;49.42;27.83;;;;;;;0.49;93.86;93865.47;2089873;28;20017;-80
2022/03/26 01:58:26;;;;;;;42.65;26.42;;;;;;;0.58;93.46;93863.47;2080990;28;20108;-83
2022/03/26 01:59:28;;;;;;;47.67;27.75;;;;;;;0.54;94.11;93864.47;2073346;28;20503;-82
2022/03/26 02:00:29;;;;;;;44.05;26.45;;;;;;;0.44;94.72;93866.47;2070928;28;20832;-80
2022/03/26 02:01:34;;;;;;;49.90;28.02;;;;;;;0.30;95.06;93863.41;2078294;28;20026;-81
2022/03/26 02:02:35;;;;;;;42.63;26.73;;;;;;;0.39;95.06;93863.28;2078956;28;20596;-83
2022/03/26 02:03:36;;;;;;;41.00;25.13;;;;;;;0.41;94.84;93867.13;2071210;28;20118;-83
2022/03/26 02:04:37;;;;;;;48.67;26.30;;;;;;;0.37;94.73;93862.88;2081168;28;20418;-81
2022/03/26 02:05:38;;;;;;;43.30;25.42;;;;;;;0.31;95.37;93858.91;2089542;28;20071;-82
2022/03/26 02:06:40;;;;;;;45.20;26.58;;;;;;;0.28;95.82;93868.25;2082987;28;20037;-81
2022/03/26 02:07:44;;;;;;;50.97;28.48;;;;;;;0.29;95.73;93869.78;2074673;28;20056;-82
2022/03/26 02:08:45;;;;;;;47.53;26.48;;;;;;;0.28;95.94;93873.50;2082555;28;20024;-84
2022/03/26 02:09:48;;;;;;;47.42;26.55;;;;;;;0.35;95.78;93865.84;2079765;28;20083;-82
2022/03/26 02:12:25;;;;;;;49.20;25.65;;;;;;;0.36;95.94;93862.09;2129410;27;20182;-82
2022/03/26 02:13:26;;;;;;;42.75;25.45;;;;;;;0.49;94.80;93862.84;2109891;28;20058;-80
2022/03/26 02:14:27;;;;;;;46.63;26.67;;;;;;;0.40;95.58;93860.34;2100634;28;20020;-83
2022/03/26 02:15:28;;;;;;;45.25;26.50;;;;;;;0.26;95.77;93862.53;2100873;28;20024;-80
2022/03/26 02:16:32;;;;;;;45.75;28.20;;;;;;;0.27;96.03;93861.47;2103012;28;20585;-82
2022/03/26 02:17:34;;;;;;;49.28;27.85;;;;;;;0.21;96.11;93857.53;2103454;28;20020;-81
2022/03/26 02:18:35;;;;;;;51.28;27.50;;;;;;;0.20;96.64;93859.38;2094456;28;20021;-83
2022/03/26 02:19:36;;;;;;;43.60;27.23;;;;;;;0.23;96.27;93863.22;2103761;28;20035;-82
2022/03/26 02:20:37;;;;;;;48.97;28.20;;;;;;;0.18;96.45;93853.72;2101588;28;20020;-82
2022/03/26 02:21:39;;;;;;;47.55;27.40;;;;;;;0.25;96.49;93863.66;2092690;28;20071;-83
2022/03/26 02:22:40;;;;;;;47.72;27.63;;;;;;;0.27;96.30;93860.72;2097785;28;20031;-82
2022/03/26 02:23:42;;;;;;;51.05;27.08;;;;;;;0.38;96.02;93859.91;2100156;28;20040;-82
2022/03/26 02:24:42;;;;;;;48.90;27.15;;;;;;;0.30;96.16;93855.53;2101978;28;20047;-82
2022/03/26 02:25:45;;;;;;;44.83;26.98;;;;;;;0.50;95.59;93861.75;2102696;28;20035;-82
2022/03/26 02:26:46;;;;;;;47.58;28.65;;;;;;;0.49;94.45;93860.97;2103096;28;20026;-81
2022/03/26 02:27:47;;;;;;;45.63;26.88;;;;;;;0.45;94.17;93862.75;2111588;28;20861;-83
2022/03/26 02:28:51;;;;;;;46.17;27.33;;;;;;;0.40;94.33;93862.22;2112017;28;20026;-83
2022/03/26 02:29:53;;;;;;;46.58;27.15;;;;;;;0.38;94.42;93867.78;2094378;28;20054;-83
2022/03/26 02:30:54;;;;;;;47.10;27.50;;;;;;;0.32;95.30;93861.25;2097967;28;20016;-83
2022/03/26 02:31:54;;;;;;;48.30;27.60;;;;;;;0.26;95.71;93859.91;2089490;28;20029;-81
2022/03/26 02:32:55;;;;;;;46.38;27.67;;;;;;;0.33;96.58;93859.38;2102774;28;20074;-83
2022/03/26 02:33:56;;;;;;;46.53;27.30;;;;;;;0.35;96.32;93862.41;2111256;28;20030;-83
2022/03/26 02:34:58;;;;;;;48.47;27.52;;;;;;;0.44;96.06;93861.22;2101380;28;20147;-81
2022/03/26 02:35:59;;;;;;;49.47;28.25;;;;;;;0.42;95.27;93868.66;2095041;28;20858;-83
2022/03/26 02:37:00;;;;;;;42.80;27.20;;;;;;;0.35;95.36;93865.03;2095960;28;20027;-82
2022/03/26 02:38:01;;;;;;;49.72;28.55;;;;;;;0.34;95.19;93856.41;2093203;28;20025;-83
2022/03/26 02:39:04;;;;;;;48.40;27.13;;;;;;;0.29;95.85;93861.88;2093135;28;20040;-82
2022/03/26 02:40:07;;;;;;;52.50;28.83;;;;;;;0.28;96.18;93863.00;2093042;28;20083;-82
2022/03/26 02:41:09;;;;;;;46.97;27.45;;;;;;;0.25;96.58;93866.28;2096207;28;20024;-82
2022/03/26 02:42:11;;;;;;;47.40;28.35;;;;;;;0.37;95.48;93868.88;2102728;28;20658;-83
2022/03/26 02:43:12;;;;;;;46.20;28.17;;;;;;;0.27;95.23;93858.84;2091654;28;20028;-81
2022/03/26 02:44:13;;;;;;;46.97;27.52;;;;;;;0.36;96.28;93859.47;2102129;28;20119;-81
2022/03/26 02:45:14;;;;;;;50.38;28.40;;;;;;;0.47;95.40;93860.53;2102884;28;20017;-83
2022/03/26 02:46:15;;;;;;;46.30;27.83;;;;;;;0.37;95.65;93861.00;2102726;28;20073;-83
2022/03/26 02:47:16;;;;;;;47.22;28.30;;;;;;;0.34;95.56;93855.63;2110920;28;20628;-82
2022/03/26 02:48:17;;;;;;;47.47;28.17;;;;;;;0.27;96.14;93861.47;2102669;28;20020;-81
2022/03/26 02:49:18;;;;;;;50.47;27.90;;;;;;;0.25;96.11;93858.38;2093849;28;20033;-81
2022/03/26 02:50:19;;;;;;;48.95;28.42;;;;;;;0.44;95.12;93860.41;2093883;28;20029;-82
2022/03/26 02:51:20;;;;;;;48.50;28.60;;;;;;;0.31;94.89;93859.72;2093976;28;20029;-82
2022/03/26 02:52:22;;;;;;;49.95;28.10;;;;;;;0.23;96.02;93860.59;2102821;28;20103;-81
2022/03/26 02:53:23;;;;;;;50.00;28.45;;;;;;;0.40;95.32;93860.34;2110952;28;20019;-83
2022/03/26 02:54:24;;;;;;;47.28;28.40;;;;;;;0.38;95.74;93849.38;2102042;28;20016;-81
2022/03/26 02:55:25;;;;;;;48.22;27.10;;;;;;;0.55;94.56;93852.84;2109791;28;20108;-82
2022/03/26 02:56:26;;;;;;;47.95;28.25;;;;;;;0.49;94.41;93849.69;2098215;28;20024;-83
2022/03/26 02:57:27;;;;;;;47.40;27.67;;;;;;;0.43;95.33;93851.78;2091349;28;20017;-84
2022/03/26 02:58:28;;;;;;;48.70;28.70;;;;;;;0.54;94.47;93857.34;2101681;28;20059;-82
2022/03/26 02:59:29;;;;;;;47.05;26.23;;;;;;;0.50;94.23;93853.84;2094615;28;20225;-81
2022/03/26 03:00:31;;;;;;;44.10;27.10;;;;;;;0.34;95.43;93848.50;2093248;28;20045;-82
2022/03/26 03:01:32;;;;;;;44.88;27.70;;;;;;;0.29;96.01;93859.25;2102325;28;20016;-81
2022/03/26 03:02:34;;;;;;;49.90;28.08;;;;;;;0.10;95.48;93861.72;2102623;28;20918;-82
2022/03/26 03:03:35;;;;;;;43.72;26.48;;;;;;;0.06;96.50;93858.97;2099797;28;20034;-83
2022/03/26 03:04:36;;;;;;;49.90;27.58;;;;;;;0.23;96.54;93864.00;2094164;28;20793;-83
2022/03/26 03:05:37;;;;;;;45.47;27.42;;;;;;;0.13;96.52;93853.94;2080379;28;20030;-83
2022/03/26 03:06:38;;;;;;;44.33;27.38;;;;;;;0.04;97.18;93857.75;2082123;28;20121;-83
2022/03/26 03:07:40;;;;;;;43.75;26.77;;;;;;;0.14;97.21;93857.34;2094506;28;20040;-82
2022/03/26 03:08:40;;;;;;;49.53;26.77;;;;;;;0.11;97.96;93856.13;2096540;28;20371;-82
2022/03/26 03:09:41;;;;;;;43.88;27.33;;;;;;;0.12;97.81;93856.88;2089631;28;20067;-83
2022/03/26 03:10:43;;;;;;;50.78;28.65;;;;;;;0.08;97.29;93858.63;2086257;28;20425;-81
2022/03/26 03:11:44;;;;;;;44.03;27.50;;;;;;;0.03;96.95;93849.13;2092503;28;20057;-81
2022/03/26 03:12:47;;;;;;;46.20;27.52;;;;;;;0.03;97.85;93846.50;2093922;28;20032;-84
2022/03/26 03:13:49;;;;;;;44.38;27.45;;;;;;;-0.07;98.07;93849.56;2081733;28;20495;-82
2022/03/26 03:14:51;;;;;;;42.45;26.30;;;;;;;0.03;98.27;93853.59;2094077;28;20013;-83
2022/03/26 03:15:58;;;;;;;49.50;28.52;;;;;;;0.06;97.08;93852.97;2109181;28;20108;-83
2022/03/26 03:17:05;;;;;;;45.40;28.17;;;;;;;-0.04;97.74;93856.81;2096048;28;20024;-84
2022/03/26 03:18:13;;;;;;;49.30;26.70;;;;;;;-0.05;98.03;93858.63;2100353;28;20017;-82
2022/03/26 03:19:14;;;;;;;50.25;26.70;;;;;;;-0.02;97.45;93849.34;2087247;28;20751;-84
2022/03/26 03:20:16;;;;;;;48.22;28.70;;;;;;;-0.09;97.59;93852.53;2094996;28;20024;-83
2022/03/26 03:21:17;;;;;;;45.83;27.42;;;;;;;-0.15;97.99;93859.09;2094147;28;20063;-82
2022/03/26 03:22:18;;;;;;;48.65;27.92;;;;;;;-0.07;97.64;93855.59;2094435;28;20017;-82
2022/03/26 03:23:19;;;;;;;45.17;28.35;;;;;;;-0.19;97.89;93852.97;2091457;28;20029;-83
2022/03/26 03:24:21;;;;;;;42.80;26.33;;;;;;;-0.15;97.99;93853.06;2080315;28;20017;-84
2022/03/26 03:25:25;;;;;;;46.53;28.10;;;;;;;0.02;96.78;93852.84;2088445;28;20060;-83
2022/03/26 03:26:26;;;;;;;46.15;27.77;;;;;;;-0.13;96.50;93850.88;2090030;28;20029;-81
2022/03/26 03:27:28;;;;;;;48.30;28.00;;;;;;;-0.26;97.83;93858.78;2092713;28;20031;-81
2022/03/26 03:28:29;;;;;;;51.38;28.15;;;;;;;-0.16;97.93;93854.94;2088948;28;20086;-83
2022/03/26 03:29:30;;;;;;;48.20;28.20;;;;;;;-0.29;97.79;93850.78;2080586;28;20160;-83
2022/03/26 03:30:31;;;;;;;50.50;28.75;;;;;;;-0.35;99.19;93852.88;2085849;28;20478;-82
2022/03/26 03:31:33;;;;;;;45.42;27.75;;;;;;;-0.35;99.31;93852.88;2084599;28;20040;-81
2022/03/26 03:32:34;;;;;;;45.80;27.27;;;;;;;-0.41;98.37;93854.16;2087701;28;20108;-81
2022/03/26 03:33:36;;;;;;;43.05;27.25;;;;;;;-0.40;99.56;93845.19;2079969;28;20033;-83
2022/03/26 03:34:37;;;;;;;48.70;28.85;;;;;;;-0.51;99.31;93855.38;2089640;28;20023;-84
2022/03/26 03:35:39;;;;;;;50.30;28.75;;;;;;;-0.42;99.53;93850.03;2089790;28;20032;-84
2022/03/26 03:36:40;;;;;;;45.25;26.83;;;;;;;-0.37;98.72;93852.41;2088396;28;20102;-82
2022/03/26 03:37:41;;;;;;;48.83;29.08;;;;;;;-0.45;98.95;93850.66;2088576;28;20024;-84
2022/03/26 03:38:42;;;;;;;47.00;26.30;;;;;;;-0.46;99.32;93853.63;2088352;28;20820;-84
2022/03/26 03:39:43;;;;;;;42.15;27.08;;;;;;;-0.51;99.67;93855.38;2081447;28;20017;-83
2022/03/26 03:40:44;;;;;;;46.30;27.08;;;;;;;-0.42;99.12;93852.63;2081036;28;20493;-83
2022/03/26 03:41:45;;;;;;;48.33;28.38;;;;;;;-0.36;98.33;93858.44;2088520;28;20096;-83
2022/03/26 03:42:46;;;;;;;52.60;29.80;;;;;;;-0.47;99.50;93852.88;2095120;28;20028;-81
2022/03/26 03:43:47;;;;;;;44.35;26.38;;;;;;;-0.52;100.00;93858.34;2096819;28;20027;-84
2022/03/26 03:44:48;;;;;;;49.70;27.08;;;;;;;-0.56;100.00;93855.59;2080098;28;20088;-81
2022/03/26 03:45:49;;;;;;;48.15;27.02;;;;;;;-0.36;98.80;93851.31;2082409;28;20367;-84
2022/03/26 03:46:51;;;;;;;46.75;26.85;;;;;;;-0.45;98.45;93855.16;2082109;28;20014;-82
2022/03/26 03:47:52;;;;;;;48.45;27.30;;;;;;;-0.43;99.13;93858.22;2095578;28;20032;-84
2022/03/26 03:48:52;;;;;;;42.47;25.88;;;;;;;-0.48;99.59;93856.59;2096704;28;20052;-83
2022/03/26 03:49:53;;;;;;;48.00;27.02;;;;;;;-0.52;100.00;93863.59;2098579;28;20031;-81
2022/03/26 03:50:55;;;;;;;49.08;26.80;;;;;;;-0.50;100.00;93858.75;2100856;28;20055;-82
2022/03/26 03:51:55;;;;;;;47.33;27.42;;;;;;;-0.37;99.31;93856.91;2087970;28;20024;-80
2022/03/26 03:52:56;;;;;;;45.60;26.67;;;;;;;-0.29;98.96;93856.81;2080176;28;20018;-81
2022/03/26 03:53:57;;;;;;;47.25;27.65;;;;;;;-0.38;98.76;93860.63;2080551;28;20124;-82
2022/03/26 03:54:58;;;;;;;50.85;28.02;;;;;;;-0.56;98.92;93850.34;2088688;28;20116;-83
2022/03/26 03:55:59;;;;;;;55.25;27.98;;;;;;;-0.58;100.00;93863.00;2096018;28;20471;-82
2022/03/26 03:57:00;;;;;;;48.88;28.30;;;;;;;-0.59;100.00;93858.84;2080565;28;20025;-82
2022/03/26 03:58:01;;;;;;;46.60;27.27;;;;;;;-0.49;99.64;93862.91;2096264;28;20023;-81
2022/03/26 03:59:02;;;;;;;47.50;27.27;;;;;;;-0.51;100.00;93862.47;2088126;28;20107;-81
2022/03/26 04:00:04;;;;;;;53.58;28.80;;;;;;;-0.49;100.00;93862.16;2087781;28;20573;-80
2022/03/26 04:01:05;;;;;;;43.53;27.73;;;;;;;-0.57;100.00;93869.03;2080604;28;20072;-81
2022/03/26 04:02:08;;;;;;;52.90;28.67;;;;;;;-0.60;100.00;93859.19;2081130;28;20489;-82
2022/03/26 04:03:09;;;;;;;45.92;26.25;;;;;;;-0.48;100.00;93861.03;2088881;28;20048;-83
2022/03/26 04:04:10;;;;;;;46.08;27.83;;;;;;;-0.64;100.00;93866.19;2095133;28;20047;-81
2022/03/26 04:05:11;;;;;;;46.28;26.45;;;;;;;-0.64;100.00;93859.06;2088679;28;20707;-82
2022/03/26 04:06:12;;;;;;;46.95;25.88;;;;;;;-0.56;100.00;93855.59;2088516;28;20048;-81
2022/03/26 04:07:13;;;;;;;49.92;26.88;;;;;;;-0.56;100.00;93860.84;2090527;28;20029;-82
2022/03/26 04:08:14;;;;;;;45.78;27.35;;;;;;;-0.42;100.00;93863.16;2087327;28;20066;-81
2022/03/26 04:09:15;;;;;;;47.75;27.20;;;;;;;-0.48;99.77;93858.44;2096264;28;20012;-83
2022/03/26 04:10:16;;;;;;;48.22;27.52;;;;;;;-0.55;100.00;93857.13;2089413;28;20106;-82
2022/03/26 04:11:17;;;;;;;44.83;26.10;;;;;;;-0.42;100.00;93860.53;2082534;28;20036;-82
2022/03/26 04:12:18;;;;;;;43.83;26.80;;;;;;;-0.44;99.69;93856.69;2079646;28;20056;-81
2022/03/26 04:13:19;;;;;;;50.97;26.75;;;;;;;-0.53;99.42;93859.41;2090338;28;20017;-82
2022/03/26 04:14:20;;;;;;;45.75;27.05;;;;;;;-0.56;99.36;93858.22;2096618;28;20022;-81
2022/03/26 04:15:21;;;;;;;43.03;26.17;;;;;;;-0.56;99.53;93850.34;2090548;28;20020;-82
2022/03/26 04:16:23;;;;;;;47.97;27.35;;;;;;;-0.53;99.67;93849.69;2088077;28;20094;-82
2022/03/26 04:17:24;;;;;;;48.40;27.60;;;;;;;-0.73;100.00;93855.78;2080544;28;20024;-84
2022/03/26 04:18:25;;;;;;;46.95;27.08;;;;;;;-0.69;100.00;93850.66;2086510;28;20466;-81
2022/03/26 04:19:26;;;;;;;46.42;27.27;;;;;;;-0.77;100.00;93862.78;2096586;28;20689;-81
2022/03/26 04:20:27;;;;;;;44.25;26.88;;;;;;;-0.83;100.00;93856.22;2086334;28;20052;-83
2022/03/26 04:21:28;;;;;;;45.45;25.75;;;;;;;-0.78;100.00;93858.63;2082206;28;20025;-81
2022/03/26 04:22:29;;;;;;;46.92;25.75;;;;;;;-0.75;100.00;93855.31;2079588;28;20026;-84
2022/03/26 04:23:30;;;;;;;42.28;26.45;;;;;;;-0.68;100.00;93852.94;2082567;28;20443;-83
2022/03/26 04:24:31;;;;;;;41.67;25.80;;;;;;;-0.78;100.00;93858.63;2075461;28;20627;-81
2022/03/26 04:25:41;;;;;;;46.28;27.17;;;;;;;-0.87;100.00;93856.09;2088253;28;20031;-82
2022/03/26 04:26:42;;;;;;;46.85;26.70;;;;;;;-0.88;100.00;93859.81;2088196;28;20064;-82
2022/03/26 04:27:44;;;;;;;43.88;26.38;;;;;;;-0.91;100.00;93864.94;2080088;28;20026;-81
2022/03/26 04:28:46;;;;;;;44.47;26.27;;;;;;;-0.88;100.00;93859.03;2080015;28;20474;-82
2022/03/26 04:29:47;;;;;;;49.50;27.52;;;;;;;-0.88;100.00;93859.03;2081679;28;20025;-83
2022/03/26 04:30:48;;;;;;;45.65;26.23;;;;;;;-0.89;100.00;93855.63;2098964;28;20496;-82
2022/03/26 04:31:49;;;;;;;43.35;27.25;;;;;;;-0.91;100.00;93860.44;2097683;28;20665;-83
2022/03/26 04:32:50;;;;;;;48.47;26.42;;;;;;;-0.91;100.00;93864.94;2098826;28;20056;-82
2022/03/26 04:33:51;;;;;;;49.05;27.92;;;;;;;-0.92;100.00;93852.88;2085637;28;20402;-83
2022/03/26 04:34:52;;;;;;;41.42;25.65;;;;;;;-0.78;100.00;93859.38;2087541;28;20087;-81
2022/03/26 04:35:53;;;;;;;43.42;26.98;;;;;;;-0.84;100.00;93855.41;2079188;28;20033;-83
2022/03/26 04:36:54;;;;;;;51.33;28.95;;;;;;;-0.98;100.00;93856.81;2085309;28;20024;-84
2022/03/26 04:37:56;;;;;;;43.20;26.45;;;;;;;-1.04;100.00;93856.25;2086653;28;20029;-82
2022/03/26 04:38:58;;;;;;;46.50;27.40;;;;;;;-1.05;100.00;93858.13;2079526;28;20025;-82
2022/03/26 04:40:00;;;;;;;46.28;26.45;;;;;;;-1.05;100.00;93858.13;2087303;28;20119;-81
2022/03/26 04:41:01;;;;;;;49.70;27.60;;;;;;;-1.04;100.00;93853.63;2088427;28;20075;-81
2022/03/26 04:42:03;;;;;;;43.05;26.98;;;;;;;-1.03;100.00;93857.78;2080877;28;20163;-83
2022/03/26 04:43:04;;;;;;;49.72;26.75;;;;;;;-1.04;100.00;93858.88;2080114;28;20053;-81
2022/03/26 04:44:05;;;;;;;45.25;25.35;;;;;;;-1.02;100.00;93851.44;2095801;28;20012;-83
2022/03/26 04:45:07;;;;;;;49.53;27.00;;;;;;;-0.98;100.00;93859.44;2104763;28;20039;-82
2022/03/26 04:46:09;;;;;;;44.05;26.30;;;;;;;-1.07;100.00;93852.41;2087678;28;20020;-81